Onweer radar Meer informatie blitzortung!


Regen radar Meer informatie rain snow radar


Andere websites:

Template documentation
and downloads

And another site

Weather-Template Info-Forum

Webcam-Havenmond

Webcam-Havenkantoor

Webcam-Werkhaven

Webcam-Westhaven



Het weer levert geen direct gevaar op.    Er zijn geen waarschuwingen afgegeven.

METAR rapporten vliegvelden

   
EBAW - Antwerp
Gewijzigd: 20-10-2018 21:20
Helder  
Helder  
   Wind: Kalm
Wind: Kalm
Temperatuur: 8°C
Dauwpunt: 4°C
Vochtigheid: 76%
Barometer: 1031 hPa
Zicht: meer dan 10 km
Bewolking: Helder
EBAW 201920Z 00000KT CAVOK 08/04 Q1031 NOSIG
EBLG - Li├Ęge
Gewijzigd: 20-10-2018 21:20
Helder  
Helder  
   Wind: Oosten 7.4 km/h
Wind: Oosten 7.4 km/h
Temperatuur: 10°C
Voelt als: 9°C
Dauwpunt: 6°C
Vochtigheid: 76%
Barometer: 1031 hPa
Zicht: meer dan 10 km
Bewolking: Helder
EBLG 201920Z 09004KT CAVOK 10/06 Q1031 NOSIG
EBCV - Mons/Bergen
Gewijzigd: 20-10-2018 21:25
Helder  
Helder  
   Wind: varieert 1.9 km/h
Wind: varieert 1.9 km/h
Temperatuur: 7°C
Dauwpunt: 5°C
Vochtigheid: 87%
Barometer: 1031 hPa
Bewolking: Helder
Zicht: meer dan 10 km
Bewolking: Helder
EBCV 201925Z AUTO VRB01KT 9999 NCD 07/05 Q1031 BLU
EHBK - Maastricht
Gewijzigd: 20-10-2018 21:25
Helder  
Helder  
   Wind: OZO 5.6 km/h
Wind: OZO 5.6 km/h
Temperatuur: 9°C
Voelt als: 8°C
Dauwpunt: 6°C
Vochtigheid: 82%
Barometer: 1030 hPa
Bewolking: Helder
Zicht: meer dan 10 km
Bewolking: Helder
EHBK 201925Z AUTO 12003KT 9999 NCD 09/06 Q1030 NOSIG
ELLX - Luxemburg
Gewijzigd: 20-10-2018 21:20
Helder  
Helder  
   Wind: NO 22.2 km/h
Wind: NO 22.2 km/h
Temperatuur: 12°C
Dauwpunt: 5°C
Vochtigheid: 63%
Barometer: 1030 hPa
Zicht: meer dan 10 km
Bewolking: Helder
ELLX 201920Z 04012KT CAVOK 12/05 Q1030 NOSIG
EBOS - Oostende
Gewijzigd: 20-10-2018 21:20
Gedeeltelijk bewolkt  
Gedeeltelijk bewolkt  
   Wind: ZZO 1.9 km/h
Wind: ZZO 1.9 km/h
Temperatuur: 8°C
Dauwpunt: 6°C
Vochtigheid: 87%
Barometer: 1031 hPa
Bewolking: Gedeeltelijk bewolkt
Zicht: 7 km
Bewolking: Gedeeltelijk bewolkt
EBOS 201920Z 16001KT 7000 NSC 08/06 Q1031 NOSIG

Script ontwikkeld door  Saratoga-weather.org Aangepast voor de template door  Weerstation Leuven

U vindt ons ook hier:

Het Weer Aktueel

European Weather Network

WeatherCloud

Weather Underground

Benelux Weer Netwerk

AWEKAS

Apparatuur in gebruik:

Weerstation
Davis VP2

Weerprogramma
Meteohub

Weercomputer
My Computer

Webleverancier
My provider

Davis VP2

Meteohub

My Computer

My provider